Time;durP1;ratioP1;P1;durP2;ratioP2;P2;SDS_P1;SDS_P2;PMS_P1;PMS_P2;Temp;Humidity;BMP_temperature;BMP_pressure;BME280_temperature;BME280_humidity;BME280_pressure;Samples;Min_cycle;Max_cycle;Signal;HPM_P1;HPM_P2
2023/10/18 00:01:04;;;;;;;17.67;9.70;;;4.60;99.90;;;;;;5185533;28;20437;-51
2023/10/18 00:03:36;;;;;;;15.80;7.77;;;4.70;99.90;;;;;;5189859;28;20451;-51
2023/10/18 00:06:16;;;;;;;23.67;9.57;;;4.70;99.90;;;;;;5186357;28;20515;-51
2023/10/18 00:08:47;;;;;;;16.00;9.13;;;4.60;99.90;;;;;;5181677;28;20545;-50
2023/10/18 00:11:18;;;;;;;16.67;8.50;;;4.60;99.90;;;;;;5186294;28;20548;-51
2023/10/18 00:13:50;;;;;;;20.27;9.90;;;4.60;99.90;;;;;;5187390;28;20187;-52
2023/10/18 00:16:22;;;;;;;10.27;8.30;;;4.60;99.90;;;;;;5181396;28;20683;-50
2023/10/18 00:18:52;;;;;;;17.67;9.83;;;4.60;99.90;;;;;;5164745;28;20534;-51
2023/10/18 00:21:23;;;;;;;14.93;9.20;;;4.60;99.90;;;;;;5184853;28;20499;-50
2023/10/18 00:23:54;;;;;;;18.30;9.50;;;4.60;99.90;;;;;;5188453;28;20198;-51
2023/10/18 00:26:25;;;;;;;11.57;9.13;;;4.60;99.90;;;;;;5185695;28;20223;-51
2023/10/18 00:28:56;;;;;;;18.23;8.60;;;4.60;99.90;;;;;;5184651;28;20428;-51
2023/10/18 00:31:27;;;;;;;16.50;8.40;;;4.60;99.90;;;;;;5188220;28;20438;-50
2023/10/18 00:33:57;;;;;;;14.30;9.23;;;4.60;99.90;;;;;;5183415;28;20541;-51
2023/10/18 00:36:30;;;;;;;15.43;9.20;;;4.50;99.90;;;;;;5187702;28;20461;-50
2023/10/18 00:39:11;;;;;;;16.80;8.03;;;4.50;99.90;;;;;;5174073;28;20216;-50
2023/10/18 00:41:45;;;;;;;13.60;8.83;;;4.30;99.90;;;;;;5188876;28;20846;-50
2023/10/18 00:44:16;;;;;;;13.60;8.10;;;4.40;99.90;;;;;;5185059;28;20562;-50
2023/10/18 00:46:47;;;;;;;15.67;9.40;;;4.40;99.90;;;;;;5186717;28;20209;-50
2023/10/18 00:49:18;;;;;;;15.47;9.30;;;4.40;99.90;;;;;;5184521;28;20187;-51
2023/10/18 00:51:49;;;;;;;19.50;9.07;;;4.40;99.90;;;;;;5179991;28;20612;-52
2023/10/18 00:54:21;;;;;;;21.20;9.30;;;4.40;99.90;;;;;;5190800;28;20999;-49
2023/10/18 00:56:51;;;;;;;14.30;8.80;;;4.40;99.90;;;;;;5186735;28;20483;-49
2023/10/18 00:59:22;;;;;;;14.73;8.60;;;4.40;99.90;;;;;;5180712;28;20467;-50
2023/10/18 01:02:13;;;;;;;11.63;8.07;;;4.40;99.90;;;;;;5170470;28;20184;-51
2023/10/18 01:04:46;;;;;;;13.33;8.60;;;4.50;99.90;;;;;;5186790;28;20190;-52
2023/10/18 01:07:20;;;;;;;15.83;8.87;;;4.40;99.90;;;;;;5167079;28;20466;-51
2023/10/18 01:09:53;;;;;;;13.63;8.27;;;4.50;99.90;;;;;;5187581;28;20456;-51
2023/10/18 01:12:25;;;;;;;19.63;8.47;;;4.40;99.90;;;;;;5186379;28;20857;-50
2023/10/18 01:14:57;;;;;;;18.83;9.10;;;4.40;99.90;;;;;;5190184;28;20529;-51
2023/10/18 01:17:27;;;;;;;18.97;9.33;;;4.40;99.90;;;;;;5183115;28;20436;-51
2023/10/18 01:19:59;;;;;;;15.37;10.07;;;4.40;99.90;;;;;;5182941;28;20473;-52
2023/10/18 01:22:30;;;;;;;14.73;9.77;;;4.40;99.90;;;;;;5171785;28;20546;-50
2023/10/18 01:25:01;;;;;;;15.53;9.30;;;4.30;99.90;;;;;;5181367;28;20461;-51
2023/10/18 01:27:31;;;;;;;23.07;10.43;;;4.30;99.90;;;;;;5185392;28;20970;-50
2023/10/18 01:30:02;;;;;;;14.67;9.03;;;4.30;99.90;;;;;;5182480;28;20203;-50
2023/10/18 01:32:33;;;;;;;14.40;8.30;;;4.30;99.90;;;;;;5183781;28;20196;-51
2023/10/18 01:35:05;;;;;;;15.53;9.33;;;4.20;99.90;;;;;;5181368;28;20678;-50
2023/10/18 01:37:39;;;;;;;12.53;8.77;;;4.20;99.90;;;;;;5184653;28;21024;-50
2023/10/18 01:40:32;;;;;;;20.13;8.93;;;4.20;99.90;;;;;;5185252;28;20440;-51
2023/10/18 01:43:04;;;;;;;14.40;8.57;;;4.20;99.90;;;;;;5184949;28;20830;-52
2023/10/18 01:45:38;;;;;;;12.70;8.27;;;4.20;99.90;;;;;;5195937;23;20461;-48
2023/10/18 01:48:09;;;;;;;15.33;8.60;;;4.20;99.90;;;;;;5200392;28;20462;-48
2023/10/18 01:50:40;;;;;;;14.13;9.60;;;4.20;99.90;;;;;;5202361;28;20420;-49
2023/10/18 01:53:16;;;;;;;12.30;9.00;;;4.20;99.90;;;;;;5209820;28;20493;-50
2023/10/18 01:55:51;;;;;;;14.50;10.30;;;4.10;99.90;;;;;;5199252;28;20223;-49
2023/10/18 01:58:26;;;;;;;12.53;8.73;;;4.10;99.90;;;;;;5204675;28;20458;-50
2023/10/18 02:00:57;;;;;;;15.53;8.97;;;4.10;99.90;;;;;;5206185;28;20474;-49
2023/10/18 02:03:29;;;;;;;16.00;9.40;;;4.00;99.90;;;;;;5206985;28;20437;-49
2023/10/18 02:05:59;;;;;;;12.03;8.77;;;4.00;99.90;;;;;;5203547;28;20248;-49
2023/10/18 02:08:30;;;;;;;17.03;8.50;;;4.00;99.90;;;;;;5208671;28;20459;-49
2023/10/18 02:11:09;;;;;;;12.33;9.30;;;3.90;99.90;;;;;;5211441;28;20184;-49
2023/10/18 02:13:39;;;;;;;16.80;9.77;;;3.90;99.90;;;;;;5191027;28;20172;-49
2023/10/18 02:16:15;;;;;;;12.80;8.57;;;3.90;99.90;;;;;;5204891;28;20561;-49
2023/10/18 02:18:49;;;;;;;19.27;9.10;;;3.90;99.90;;;;;;5199077;28;20196;-48
2023/10/18 02:21:21;;;;;;;15.10;9.03;;;3.80;99.90;;;;;;5205052;28;20441;-48
2023/10/18 02:23:52;;;;;;;19.27;9.47;;;3.80;99.90;;;;;;5207307;28;20439;-49
2023/10/18 02:29:11;;;;;;;12.30;9.27;;;3.70;99.90;;;;;;5211605;28;20172;-49
2023/10/18 02:31:42;;;;;;;18.03;9.97;;;3.60;99.90;;;;;;5209508;28;20465;-49
2023/10/18 02:34:16;;;;;;;14.60;10.27;;;3.60;99.90;;;;;;5207821;28;20431;-49
2023/10/18 02:36:50;;;;;;;12.07;9.10;;;3.60;99.90;;;;;;5214773;28;20203;-49
2023/10/18 02:39:23;;;;;;;16.10;9.87;;;3.60;99.90;;;;;;5213976;28;20472;-49
2023/10/18 02:41:56;;;;;;;15.63;10.40;;;3.60;99.90;;;;;;5209028;28;20467;-49
2023/10/18 02:44:29;;;;;;;14.80;10.60;;;3.50;99.90;;;;;;5211950;28;20475;-50
2023/10/18 02:47:33;;;;;;;11.47;9.20;;;3.50;99.90;;;;;;5209853;28;20470;-51
2023/10/18 02:49:57;;;;;;;18.00;8.70;;;3.40;99.90;;;;;;5205635;28;20518;-48
2023/10/18 02:52:30;;;;;;;14.97;9.90;;;3.40;99.90;;;;;;5205449;28;20880;-49
2023/10/18 02:55:02;;;;;;;14.67;9.80;;;3.40;99.90;;;;;;5190211;28;20677;-49
2023/10/18 02:57:33;;;;;;;14.63;9.90;;;3.40;99.90;;;;;;5207409;28;20461;-49
2023/10/18 03:00:10;;;;;;;14.37;8.83;;;3.40;99.90;;;;;;5194029;28;21027;-49
2023/10/18 03:02:41;;;;;;;14.10;8.43;;;3.40;99.90;;;;;;5210904;28;20188;-49
2023/10/18 03:05:12;;;;;;;17.80;10.10;;;3.30;99.90;;;;;;5214216;28;20462;-49
2023/10/18 03:07:42;;;;;;;11.20;9.60;;;3.30;99.90;;;;;;5207762;28;20203;-49
2023/10/18 03:10:47;;;;;;;12.07;9.93;;;3.30;99.90;;;;;;5206471;28;20587;-48
2023/10/18 03:13:13;;;;;;;23.10;9.47;;;3.30;99.90;;;;;;5207935;28;20720;-48
2023/10/18 03:15:54;;;;;;;21.43;10.57;;;3.30;99.90;;;;;;5205742;28;20454;-48
2023/10/18 03:18:25;;;;;;;18.10;9.53;;;3.30;99.90;;;;;;5211468;28;20451;-48
2023/10/18 03:20:57;;;;;;;12.90;10.27;;;3.20;99.90;;;;;;5206108;28;20469;-48
2023/10/18 03:23:31;;;;;;;20.33;9.80;;;3.30;99.90;;;;;;5212308;28;20431;-49
2023/10/18 03:26:08;;;;;;;13.10;9.10;;;3.20;99.90;;;;;;5211127;28;20554;-48
2023/10/18 03:28:43;;;;;;;13.80;10.00;;;3.20;99.90;;;;;;5211561;28;20941;-48
2023/10/18 03:31:40;;;;;;;17.43;8.33;;;3.10;99.90;;;;;;5210762;28;20434;-47
2023/10/18 03:34:13;;;;;;;18.23;11.17;;;3.10;99.90;;;;;;5206846;28;20442;-47
2023/10/18 03:36:53;;;;;;;18.63;11.03;;;3.10;99.90;;;;;;5207498;28;20968;-48
2023/10/18 03:39:25;;;;;;;17.97;10.33;;;3.00;99.90;;;;;;5209004;28;20438;-48
2023/10/18 03:41:58;;;;;;;12.83;9.13;;;3.00;99.90;;;;;;5208180;28;20415;-48
2023/10/18 03:44:32;;;;;;;15.97;9.27;;;3.00;99.90;;;;;;5215677;28;20462;-48
2023/10/18 03:47:11;;;;;;;15.93;9.70;;;3.00;99.90;;;;;;5210629;28;20509;-47
2023/10/18 03:49:44;;;;;;;14.60;8.87;;;3.00;99.90;;;;;;5209689;28;20479;-47
2023/10/18 03:57:28;;;;;;;11.63;9.43;;;3.00;99.90;;;;;;5207536;28;20207;-47
2023/10/18 03:59:58;;;;;;;13.63;9.33;;;3.00;99.90;;;;;;5208952;28;21009;-48
2023/10/18 04:02:29;;;;;;;14.90;8.33;;;3.00;99.90;;;;;;5206973;28;20521;-48
2023/10/18 04:05:00;;;;;;;9.03;8.00;;;2.90;99.90;;;;;;5205154;28;20235;-49
2023/10/18 04:07:31;;;;;;;15.77;9.70;;;2.90;99.90;;;;;;5202340;28;20246;-49
2023/10/18 04:10:13;;;;;;;13.13;8.90;;;3.00;99.90;;;;;;5203376;28;20446;-49
2023/10/18 04:12:44;;;;;;;14.50;8.70;;;2.90;99.90;;;;;;5212185;28;20662;-49
2023/10/18 04:15:29;;;;;;;9.77;7.50;;;2.90;99.90;;;;;;5195574;28;20436;-49
2023/10/18 04:18:11;;;;;;;8.67;7.20;;;2.90;99.90;;;;;;5208550;28;20906;-48
2023/10/18 04:20:43;;;;;;;12.20;8.97;;;2.90;99.90;;;;;;5208699;28;20521;-48
2023/10/18 04:23:15;;;;;;;13.23;8.20;;;2.90;99.90;;;;;;5204484;28;20445;-48
2023/10/18 04:26:03;;;;;;;12.20;7.63;;;2.90;99.90;;;;;;5203505;28;20535;-48
2023/10/18 04:28:42;;;;;;;15.77;9.60;;;2.90;99.90;;;;;;5209593;28;20527;-49
2023/10/18 04:31:14;;;;;;;11.70;8.00;;;2.90;99.90;;;;;;5195411;28;20529;-48
2023/10/18 04:33:53;;;;;;;9.90;8.37;;;3.00;99.90;;;;;;5210416;28;20476;-49
2023/10/18 04:36:23;;;;;;;19.07;10.47;;;2.90;99.90;;;;;;5206862;28;20462;-49
2023/10/18 04:38:56;;;;;;;18.10;11.27;;;2.90;99.90;;;;;;5205222;28;20435;-48
2023/10/18 04:41:28;;;;;;;24.33;12.97;;;2.80;99.90;;;;;;5205352;28;20184;-49
2023/10/18 04:46:37;;;;;;;21.00;11.37;;;2.80;99.90;;;;;;5208910;28;20551;-49
2023/10/18 04:54:15;;;;;;;18.30;11.20;;;2.90;99.90;;;;;;5205902;28;20423;-48
2023/10/18 04:56:47;;;;;;;17.30;12.40;;;2.90;99.90;;;;;;5203556;28;20313;-48
2023/10/18 05:04:33;;;;;;;15.77;9.80;;;3.00;99.90;;;;;;5207183;28;20530;-49
2023/10/18 05:07:17;;;;;;;19.93;10.23;;;2.90;99.90;;;;;;5208502;28;20561;-48
2023/10/18 05:09:55;;;;;;;16.13;10.73;;;2.90;99.90;;;;;;5205265;28;20504;-48
2023/10/18 05:17:42;;;;;;;14.37;9.67;;;2.90;99.90;;;;;;5209421;28;20608;-48
2023/10/18 05:22:52;;;;;;;16.70;11.10;;;2.90;99.90;;;;;;5203691;28;20430;-48
2023/10/18 05:25:29;;;;;;;17.50;11.53;;;2.90;99.90;;;;;;5205563;28;20611;-48
2023/10/18 05:28:00;;;;;;;21.87;12.03;;;3.00;99.90;;;;;;5205265;28;20434;-48
2023/10/18 05:31:20;;;;;;;13.93;10.90;;;3.00;99.90;;;;;;5202255;28;20846;-49
2023/10/18 05:36:29;;;;;;;13.97;11.07;;;3.00;99.90;;;;;;5207638;28;20457;-50
2023/10/18 05:39:49;;;;;;;21.00;10.90;;;2.90;99.90;;;;;;5205062;28;20446;-49
2023/10/18 05:42:03;;;;;;;12.50;10.07;;;3.00;99.90;;;;;;5199715;28;20427;-49
2023/10/18 05:44:34;;;;;;;17.97;10.77;;;3.00;99.90;;;;;;5207748;28;20436;-48
2023/10/18 05:47:06;;;;;;;17.30;11.43;;;3.00;99.90;;;;;;5209930;28;20465;-49
2023/10/18 05:49:43;;;;;;;14.97;10.53;;;3.00;99.90;;;;;;5208279;28;20172;-48
2023/10/18 05:54:44;;;;;;;17.23;9.57;;;3.10;99.90;;;;;;5207973;28;20445;-49
2023/10/18 05:57:19;;;;;;;18.33;8.83;;;3.20;99.90;;;;;;5201952;28;20199;-48
2023/10/18 05:59:50;;;;;;;18.53;9.77;;;3.20;99.90;;;;;;5188121;28;20182;-47
2023/10/18 06:02:23;;;;;;;11.57;8.70;;;3.20;99.90;;;;;;5207040;28;20434;-48
2023/10/18 06:04:58;;;;;;;12.70;8.80;;;3.30;99.90;;;;;;5212753;28;20554;-48
2023/10/18 06:07:29;;;;;;;15.80;9.30;;;3.30;99.90;;;;;;5214437;28;20968;-48
2023/10/18 06:10:00;;;;;;;21.30;9.23;;;3.40;99.90;;;;;;5210335;28;20488;-48
2023/10/18 06:12:37;;;;;;;13.80;9.87;;;3.40;99.90;;;;;;5210856;28;20267;-49
2023/10/18 06:15:11;;;;;;;13.00;9.30;;;3.50;99.90;;;;;;5213461;28;20425;-49
2023/10/18 06:17:50;;;;;;;28.07;10.80;;;3.70;99.90;;;;;;5210940;28;20465;-48
2023/10/18 06:20:30;;;;;;;19.50;8.97;;;3.80;99.90;;;;;;5208224;28;20441;-49
2023/10/18 06:25:50;;;;;;;17.23;9.07;;;3.80;99.90;;;;;;5208716;28;20836;-49
2023/10/18 06:28:21;;;;;;;16.70;9.60;;;4.80;99.90;;;;;;5209365;28;20446;-49
2023/10/18 06:30:53;;;;;;;13.27;7.40;;;6.90;99.90;;;;;;5209189;28;20655;-49
2023/10/18 06:33:26;;;;;;;20.53;6.97;;;9.00;99.90;;;;;;5209881;28;20187;-48
2023/10/18 06:36:11;;;;;;;11.07;7.30;;;10.60;99.90;;;;;;5192774;28;20464;-49
2023/10/18 06:38:43;;;;;;;12.13;6.70;;;11.60;99.90;;;;;;5207687;28;20457;-49
2023/10/18 06:41:18;;;;;;;12.90;7.73;;;12.30;99.90;;;;;;5210709;28;20445;-49
2023/10/18 06:43:49;;;;;;;9.40;6.43;;;12.90;98.20;;;;;;5208814;28;20764;-50
2023/10/18 06:46:26;;;;;;;18.03;7.30;;;13.40;94.60;;;;;;5213984;28;20534;-50
2023/10/18 06:48:58;;;;;;;16.97;6.47;;;13.60;92.70;;;;;;5209662;28;20210;-50
2023/10/18 06:51:33;;;;;;;24.53;8.07;;;13.50;92.00;;;;;;5210435;28;20428;-49
2023/10/18 06:54:04;;;;;;;14.10;7.80;;;13.60;91.90;;;;;;5206779;28;20426;-49
2023/10/18 06:56:40;;;;;;;10.33;6.67;;;13.70;90.20;;;;;;5207391;28;20458;-49
2023/10/18 06:59:11;;;;;;;15.30;7.97;;;13.50;90.60;;;;;;5211178;28;20266;-50
2023/10/18 07:01:42;;;;;;;14.90;6.10;;;14.20;89.30;;;;;;5208906;28;20521;-49
2023/10/18 07:04:18;;;;;;;10.37;6.80;;;15.40;84.70;;;;;;5209571;28;20442;-48
2023/10/18 07:06:49;;;;;;;11.73;6.50;;;16.20;77.60;;;;;;5205687;28;20211;-49
2023/10/18 07:09:25;;;;;;;9.80;6.60;;;16.50;73.20;;;;;;5210264;28;20434;-49
2023/10/18 07:13:02;;;;;;;18.17;7.67;;;16.90;69.50;;;;;;5207918;28;20250;-50
2023/10/18 07:14:56;;;;;;;12.00;7.40;;;17.00;68.00;;;;;;5208746;28;20406;-50
2023/10/18 07:17:27;;;;;;;15.80;7.40;;;16.80;65.40;;;;;;5210104;28;20778;-50
2023/10/18 07:20:01;;;;;;;14.17;7.30;;;15.60;67.50;;;;;;5210954;28;20555;-50
2023/10/18 07:22:44;;;;;;;12.93;7.50;;;13.80;72.50;;;;;;5207013;28;20516;-50
2023/10/18 07:25:27;;;;;;;14.23;7.60;;;11.80;80.60;;;;;;5206534;28;20859;-49
2023/10/18 07:27:59;;;;;;;10.63;7.43;;;10.00;93.60;;;;;;5190383;28;20532;-50
2023/10/18 07:30:44;;;;;;;10.13;6.97;;;8.70;99.90;;;;;;5206726;28;20517;-49
2023/10/18 07:33:15;;;;;;;10.77;7.17;;;7.90;99.90;;;;;;5210596;28;20423;-49
2023/10/18 07:35:45;;;;;;;25.60;8.17;;;7.40;99.90;;;;;;5207558;28;20886;-50
2023/10/18 07:38:25;;;;;;;11.20;8.50;;;7.00;99.90;;;;;;5206726;28;20550;-50
2023/10/18 07:40:57;;;;;;;15.40;9.63;;;6.90;99.90;;;;;;5207365;28;20210;-49
2023/10/18 07:43:27;;;;;;;13.30;8.00;;;6.70;99.90;;;;;;5208614;28;20457;-49
2023/10/18 07:46:05;;;;;;;22.33;9.43;;;6.70;99.90;;;;;;5218154;23;20466;-52
2023/10/18 07:48:46;;;;;;;15.20;8.87;;;6.70;99.90;;;;;;5203713;28;20891;-49
2023/10/18 07:51:26;;;;;;;18.33;8.20;;;6.70;99.90;;;;;;5203445;28;20972;-49
2023/10/18 07:53:59;;;;;;;17.43;9.00;;;6.80;99.90;;;;;;5207004;28;20427;-49
2023/10/18 07:56:31;;;;;;;17.03;8.80;;;6.70;99.90;;;;;;5203617;28;20454;-50
2023/10/18 08:04:43;;;;;;;21.43;9.03;;;6.90;99.90;;;;;;5201115;28;20446;-50
2023/10/18 08:07:15;;;;;;;14.60;8.57;;;7.00;99.90;;;;;;5204265;28;20465;-49
2023/10/18 08:09:48;;;;;;;17.57;8.93;;;7.10;99.90;;;;;;5205374;28;20429;-52
2023/10/18 08:14:56;;;;;;;16.43;9.57;;;7.30;99.90;;;;;;5204985;28;20445;-51
2023/10/18 08:17:30;;;;;;;23.33;9.80;;;7.30;99.90;;;;;;5202405;28;20458;-50
2023/10/18 08:22:52;;;;;;;16.70;9.17;;;7.60;99.90;;;;;;5205842;28;20431;-50
2023/10/18 08:25:29;;;;;;;15.47;10.07;;;7.60;99.90;;;;;;5198612;28;20461;-49
2023/10/18 08:28:01;;;;;;;18.60;9.23;;;7.70;99.90;;;;;;5203588;28;20457;-49
2023/10/18 08:33:14;;;;;;;15.40;8.00;;;7.80;99.90;;;;;;5208045;28;20414;-48
2023/10/18 08:35:46;;;;;;;19.60;10.37;;;7.90;99.90;;;;;;5206066;28;20426;-48
2023/10/18 08:38:17;;;;;;;14.47;9.47;;;8.00;99.90;;;;;;5202607;28;20191;-48
2023/10/18 08:40:49;;;;;;;10.77;8.37;;;8.00;99.90;;;;;;5206159;28;20508;-51
2023/10/18 08:43:35;;;;;;;20.57;10.53;;;8.10;99.90;;;;;;5203580;28;20226;-49
2023/10/18 08:46:05;;;;;;;14.53;10.07;;;8.20;99.90;;;;;;5204527;28;20528;-50
2023/10/18 08:48:42;;;;;;;22.47;13.43;;;8.30;99.90;;;;;;5203358;28;20480;-49
2023/10/18 08:51:13;;;;;;;12.13;9.20;;;8.40;99.90;;;;;;5190204;28;20219;-48
2023/10/18 08:53:44;;;;;;;13.53;9.57;;;8.50;99.90;;;;;;5204694;28;20431;-48
2023/10/18 08:56:15;;;;;;;14.40;9.27;;;8.50;99.90;;;;;;5204774;28;20461;-49
2023/10/18 08:58:47;;;;;;;10.33;8.30;;;8.60;99.90;;;;;;5203942;28;20434;-49
2023/10/18 09:01:21;;;;;;;14.93;8.10;;;8.80;99.90;;;;;;5203960;28;20441;-49
2023/10/18 09:03:52;;;;;;;10.33;8.10;;;8.80;99.90;;;;;;5201257;28;20412;-49
2023/10/18 09:06:30;;;;;;;11.67;7.50;;;8.90;99.90;;;;;;5204268;28;20532;-50
2023/10/18 09:09:05;;;;;;;10.00;7.40;;;9.00;99.90;;;;;;5203458;28;20171;-49
2023/10/18 09:11:47;;;;;;;10.90;8.07;;;9.00;99.90;;;;;;5203801;28;20813;-50
2023/10/18 09:14:18;;;;;;;13.70;7.97;;;9.10;99.90;;;;;;5203980;28;20499;-48
2023/10/18 09:16:48;;;;;;;16.40;8.30;;;9.10;99.90;;;;;;5200832;28;20450;-49
2023/10/18 09:19:25;;;;;;;10.20;7.20;;;9.20;99.90;;;;;;5204360;28;20187;-48
2023/10/18 09:22:01;;;;;;;8.10;6.30;;;9.30;99.90;;;;;;5202031;28;20281;-50
2023/10/18 09:24:32;;;;;;;13.20;6.33;;;9.30;99.90;;;;;;5204341;28;20756;-50
2023/10/18 09:27:04;;;;;;;8.30;6.80;;;9.30;99.90;;;;;;5199615;28;20469;-50
2023/10/18 09:29:35;;;;;;;4.83;4.43;;;9.30;99.90;;;;;;5202684;28;20199;-50
2023/10/18 09:32:12;;;;;;;5.80;5.30;;;9.30;99.90;;;;;;5203959;28;20433;-50
2023/10/18 09:34:44;;;;;;;15.17;5.60;;;9.40;99.90;;;;;;5204174;28;20168;-48
2023/10/18 09:37:26;;;;;;;13.80;6.53;;;9.40;99.90;;;;;;5202839;28;20511;-49
2023/10/18 09:39:57;;;;;;;7.03;6.33;;;9.50;99.90;;;;;;5199272;28;20423;-50
2023/10/18 09:42:28;;;;;;;7.90;5.60;;;9.60;99.90;;;;;;5220446;28;20430;-50
2023/10/18 09:44:59;;;;;;;12.13;5.23;;;9.70;99.90;;;;;;5202157;28;20576;-49
2023/10/18 09:47:31;;;;;;;5.20;4.73;;;9.70;99.90;;;;;;5204620;28;20285;-48
2023/10/18 09:50:07;;;;;;;10.17;5.77;;;9.70;99.90;;;;;;5205322;28;20438;-48
2023/10/18 09:52:47;;;;;;;6.17;5.57;;;9.70;99.90;;;;;;5204918;28;20207;-47
2023/10/18 09:55:20;;;;;;;15.50;4.77;;;9.70;99.90;;;;;;5201692;28;20438;-48
2023/10/18 09:57:59;;;;;;;5.57;4.80;;;9.80;99.90;;;;;;5201815;28;20914;-48
2023/10/18 10:00:47;;;;;;;6.80;5.20;;;9.90;99.90;;;;;;5204132;28;20427;-49
2023/10/18 10:03:24;;;;;;;6.20;5.23;;;9.90;99.90;;;;;;5205826;28;20505;-49
2023/10/18 10:05:57;;;;;;;7.50;6.57;;;10.00;99.90;;;;;;5204454;28;20461;-50
2023/10/18 10:08:31;;;;;;;5.70;4.53;;;10.10;99.90;;;;;;5203358;28;20851;-49
2023/10/18 10:11:14;;;;;;;6.77;5.30;;;10.10;99.90;;;;;;5201951;28;20438;-49
2023/10/18 10:13:45;;;;;;;14.87;5.80;;;10.10;99.90;;;;;;5203956;28;20496;-50
2023/10/18 10:16:20;;;;;;;9.80;5.30;;;10.30;99.90;;;;;;5199970;28;20485;-49
2023/10/18 10:18:53;;;;;;;6.33;5.07;;;10.40;99.90;;;;;;5201401;28;20441;-50
2023/10/18 10:21:27;;;;;;;4.83;4.53;;;10.50;99.90;;;;;;5201126;28;20438;-49
2023/10/18 10:23:58;;;;;;;4.90;4.50;;;10.50;99.90;;;;;;5202599;28;20496;-49
2023/10/18 10:26:29;;;;;;;5.53;5.03;;;10.50;99.90;;;;;;5199137;28;20523;-49
2023/10/18 10:31:54;;;;;;;7.93;4.90;;;10.50;99.90;;;;;;5198873;28;20234;-50
2023/10/18 10:34:27;;;;;;;3.77;3.47;;;10.60;99.90;;;;;;5199970;28;20439;-49
2023/10/18 10:37:08;;;;;;;6.00;5.00;;;10.60;99.90;;;;;;5199620;28;20453;-49
2023/10/18 10:42:41;;;;;;;6.37;5.70;;;10.50;99.90;;;;;;5202167;28;20452;-50
2023/10/18 10:45:37;;;;;;;8.80;4.90;;;10.40;99.90;;;;;;5203379;28;20468;-49
2023/10/18 10:51:13;;;;;;;7.73;4.63;;;10.40;99.90;;;;;;5205031;28;20438;-49
2023/10/18 10:53:57;;;;;;;5.73;5.23;;;10.50;99.90;;;;;;5204958;28;20448;-52
2023/10/18 10:56:28;;;;;;;5.57;5.00;;;10.60;99.90;;;;;;5204987;28;20470;-52
2023/10/18 10:59:19;;;;;;;4.70;4.40;;;10.70;99.90;;;;;;5205571;28;20441;-50
2023/10/18 11:04:29;;;;;;;6.30;5.67;;;10.70;99.90;;;;;;5206155;28;20449;-51
2023/10/18 11:07:01;;;;;;;8.10;5.40;;;10.70;99.90;;;;;;5221099;28;20832;-51
2023/10/18 11:09:33;;;;;;;6.40;5.13;;;10.70;99.90;;;;;;5203885;28;20423;-50
2023/10/18 11:12:08;;;;;;;7.27;4.70;;;10.80;99.90;;;;;;5206963;28;20508;-51
2023/10/18 11:14:42;;;;;;;5.10;4.70;;;10.80;99.90;;;;;;5205798;28;20711;-49
2023/10/18 11:19:53;;;;;;;4.43;4.03;;;11.00;99.90;;;;;;5208830;28;20477;-52
2023/10/18 11:22:24;;;;;;;4.20;3.80;;;11.10;99.90;;;;;;5201922;28;20454;-50
2023/10/18 11:24:55;;;;;;;4.77;4.33;;;11.20;99.90;;;;;;5208091;28;20422;-51
2023/10/18 11:27:34;;;;;;;4.10;3.70;;;11.30;99.90;;;;;;5201567;28;20298;-49
2023/10/18 11:30:24;;;;;;;6.77;4.40;;;11.20;99.90;;;;;;5204785;28;20438;-51
2023/10/18 11:32:55;;;;;;;4.13;3.73;;;11.10;99.90;;;;;;5203251;28;20800;-49
2023/10/18 11:35:38;;;;;;;3.63;3.43;;;11.20;99.90;;;;;;5205260;28;20450;-49
2023/10/18 11:38:10;;;;;;;3.63;3.33;;;11.30;99.90;;;;;;5204840;28;20452;-51
2023/10/18 11:40:41;;;;;;;3.60;3.30;;;11.50;99.90;;;;;;5204677;28;20446;-50
2023/10/18 11:43:11;;;;;;;3.93;3.73;;;11.50;99.90;;;;;;5206141;28;20720;-51
2023/10/18 11:45:42;;;;;;;2.30;2.30;;;11.50;99.90;;;;;;5220700;28;20279;-51
2023/10/18 11:48:14;;;;;;;4.03;2.80;;;11.40;99.90;;;;;;5203934;28;20199;-50
2023/10/18 11:50:50;;;;;;;3.27;3.07;;;11.40;99.80;;;;;;5205338;28;20241;-50
2023/10/18 11:53:24;;;;;;;3.73;3.33;;;11.30;99.40;;;;;;5205763;28;20537;-50
2023/10/18 11:56:11;;;;;;;2.83;2.63;;;11.40;99.60;;;;;;5205180;28;20449;-51
2023/10/18 11:59:00;;;;;;;3.60;3.40;;;11.50;99.60;;;;;;5203804;28;20478;-49
2023/10/18 12:01:37;;;;;;;3.90;3.53;;;11.50;99.00;;;;;;5205003;28;20493;-51
2023/10/18 12:04:08;;;;;;;3.07;2.90;;;11.50;99.20;;;;;;5206778;28;20430;-49
2023/10/18 12:06:38;;;;;;;4.33;3.00;;;11.50;99.10;;;;;;5220803;28;20477;-50
2023/10/18 12:09:25;;;;;;;4.93;3.40;;;11.40;98.70;;;;;;5204568;28;20222;-50
2023/10/18 12:11:57;;;;;;;3.97;3.67;;;11.30;98.80;;;;;;5203476;28;20237;-50
2023/10/18 12:14:32;;;;;;;3.23;3.03;;;11.20;98.70;;;;;;5205075;28;20442;-51
2023/10/18 12:17:03;;;;;;;6.77;3.10;;;11.20;98.60;;;;;;5202385;28;20457;-50
2023/10/18 12:19:37;;;;;;;3.40;3.20;;;11.30;98.50;;;;;;5203128;28;20534;-50
2023/10/18 12:22:09;;;;;;;4.33;3.73;;;11.40;98.70;;;;;;5203717;28;20178;-49
2023/10/18 12:24:41;;;;;;;3.57;3.27;;;11.40;98.00;;;;;;5208100;28;20803;-51
2023/10/18 12:32:54;;;;;;;8.70;3.40;;;11.70;97.40;;;;;;5204205;28;20431;-50
2023/10/18 12:35:28;;;;;;;5.20;4.10;;;11.80;96.80;;;;;;5203389;28;20435;-50
2023/10/18 12:37:59;;;;;;;4.80;3.20;;;11.80;96.30;;;;;;5203728;28;20208;-51
2023/10/18 12:40:51;;;;;;;4.70;3.63;;;11.80;95.90;;;;;;5203947;28;20547;-50
2023/10/18 12:43:21;;;;;;;3.27;3.07;;;11.70;95.90;;;;;;5221135;28;20192;-50
2023/10/18 12:45:53;;;;;;;2.80;2.70;;;11.80;96.20;;;;;;5203799;28;20549;-50
2023/10/18 12:48:23;;;;;;;5.00;3.80;;;11.90;96.20;;;;;;5206036;28;20187;-51
2023/10/18 12:50:55;;;;;;;4.03;3.37;;;12.00;95.30;;;;;;5203858;28;20438;-51
2023/10/18 12:55:58;;;;;;;4.10;3.70;;;11.90;95.20;;;;;;5200533;28;20435;-49
2023/10/18 12:58:29;;;;;;;3.43;3.23;;;11.90;95.40;;;;;;5202884;28;20263;-51
2023/10/18 13:01:05;;;;;;;3.43;3.13;;;11.90;95.30;;;;;;5204025;28;20438;-50
2023/10/18 13:03:56;;;;;;;4.40;3.40;;;11.90;94.90;;;;;;5203443;28;20227;-51
2023/10/18 13:06:30;;;;;;;4.57;3.20;;;11.90;94.80;;;;;;5199485;28;20516;-51
2023/10/18 13:14:31;;;;;;;6.83;3.20;;;12.00;94.50;;;;;;5197792;28;20438;-50
2023/10/18 13:17:05;;;;;;;3.30;3.10;;;12.00;94.00;;;;;;5202783;28;20965;-50
2023/10/18 13:19:41;;;;;;;3.80;3.27;;;11.90;93.80;;;;;;5202450;28;20445;-50
2023/10/18 13:22:17;;;;;;;3.80;3.50;;;12.00;94.10;;;;;;5205193;28;20743;-50
2023/10/18 13:24:48;;;;;;;4.77;3.70;;;12.00;93.60;;;;;;5204130;28;20508;-53
2023/10/18 13:27:27;;;;;;;11.43;3.93;;;12.00;93.70;;;;;;5204181;28;20565;-52
2023/10/18 13:30:09;;;;;;;3.60;3.30;;;12.20;93.20;;;;;;5195908;28;20203;-50
2023/10/18 13:32:40;;;;;;;3.23;3.03;;;12.40;92.50;;;;;;5202290;28;20434;-51
2023/10/18 13:35:14;;;;;;;4.27;3.67;;;12.30;92.50;;;;;;5202336;28;20445;-49
2023/10/18 13:37:45;;;;;;;4.30;3.57;;;12.30;92.70;;;;;;5200833;28;20453;-51
2023/10/18 13:40:18;;;;;;;10.23;2.97;;;12.20;92.20;;;;;;5203635;28;20423;-51
2023/10/18 13:42:50;;;;;;;4.83;3.43;;;12.10;92.10;;;;;;5198587;28;20190;-50
2023/10/18 13:45:27;;;;;;;7.90;3.60;;;12.00;91.80;;;;;;5201513;28;20458;-51
2023/10/18 13:47:58;;;;;;;3.63;3.40;;;12.00;92.40;;;;;;5213868;22;20489;-48
2023/10/18 13:50:35;;;;;;;3.37;3.17;;;12.00;92.40;;;;;;5202171;28;20985;-49
2023/10/18 13:53:12;;;;;;;5.70;3.50;;;12.00;92.10;;;;;;5201673;28;20186;-49
2023/10/18 13:55:43;;;;;;;3.90;3.50;;;12.00;92.00;;;;;;5201668;28;20422;-48
2023/10/18 13:58:14;;;;;;;4.43;2.77;;;12.00;92.20;;;;;;5211273;28;20504;-48
2023/10/18 14:00:45;;;;;;;4.10;3.80;;;12.00;92.10;;;;;;5206151;28;20442;-51
2023/10/18 14:03:19;;;;;;;6.37;3.87;;;12.00;91.90;;;;;;5205024;28;20284;-52
2023/10/18 14:05:50;;;;;;;3.20;3.00;;;12.00;92.00;;;;;;5205557;28;20978;-50
2023/10/18 14:08:22;;;;;;;3.53;3.30;;;11.90;91.60;;;;;;5205199;28;20434;-49
2023/10/18 14:10:54;;;;;;;9.03;4.10;;;11.90;91.80;;;;;;5204143;28;20846;-48
2023/10/18 14:13:27;;;;;;;3.13;2.87;;;11.90;92.20;;;;;;5208007;28;20430;-50
2023/10/18 14:15:58;;;;;;;5.03;3.60;;;11.90;92.00;;;;;;5205353;28;20875;-49
2023/10/18 14:18:31;;;;;;;3.50;3.20;;;11.80;91.70;;;;;;5207370;28;20465;-50
2023/10/18 14:21:04;;;;;;;7.83;3.60;;;11.70;91.90;;;;;;5204820;28;20176;-49
2023/10/18 14:23:35;;;;;;;3.87;3.50;;;11.70;92.00;;;;;;5206479;28;20491;-50
2023/10/18 14:26:06;;;;;;;7.83;3.97;;;11.80;91.40;;;;;;5211709;28;20466;-50
2023/10/18 14:28:37;;;;;;;4.50;3.47;;;11.70;91.40;;;;;;5209824;28;20426;-49
2023/10/18 14:31:14;;;;;;;7.27;3.40;;;11.70;91.00;;;;;;5209147;28;20191;-48
2023/10/18 14:33:45;;;;;;;13.80;3.70;;;11.70;91.30;;;;;;5213952;28;20172;-47
2023/10/18 14:36:18;;;;;;;4.43;4.00;;;11.60;91.10;;;;;;5209441;28;20462;-49
2023/10/18 14:38:49;;;;;;;4.47;3.60;;;11.60;91.10;;;;;;5207588;28;20434;-50
2023/10/18 14:41:22;;;;;;;4.23;3.83;;;11.60;91.10;;;;;;5211197;28;20453;-49